Time;durP1;ratioP1;P1;durP2;ratioP2;P2;SDS_P1;SDS_P2;PMS_P1;PMS_P2;Temp;Humidity;BMP_temperature;BMP_pressure;BME280_temperature;BME280_humidity;BME280_pressure;Samples;Min_cycle;Max_cycle;Signal;HPM_P1;HPM_P2
2023/01/05 00:02:20;;;;;;;7.50;2.13;;;;;;;9.79;100.00;100158.38;4968129;29;20441;-74
2023/01/05 00:04:52;;;;;;;4.73;1.33;;;;;;;9.85;99.86;100152.13;4941566;29;20460;-76
2023/01/05 00:07:22;;;;;;;6.10;2.40;;;;;;;9.87;99.52;100152.75;4956691;28;20905;-75
2023/01/05 00:09:52;;;;;;;7.83;1.90;;;;;;;9.99;98.48;100159.09;4940190;29;20439;-75
2023/01/05 00:23:32;;;;;;;2.70;1.53;;;;;;;9.98;94.63;100152.03;4961024;28;20436;-75
2023/01/05 00:26:02;;;;;;;4.50;1.70;;;;;;;9.97;93.71;100161.19;4960065;28;20468;-76
2023/01/05 00:28:32;;;;;;;2.88;1.50;;;;;;;9.99;92.88;100158.28;4956119;29;20428;-74
2023/01/05 00:31:01;;;;;;;3.88;1.80;;;;;;;10.06;92.04;100158.25;4959246;29;20609;-75
2023/01/05 00:33:33;;;;;;;4.30;1.30;;;;;;;10.10;91.43;100165.72;4958688;29;20642;-74
2023/01/05 00:36:08;;;;;;;6.95;2.10;;;;;;;10.13;91.88;100169.84;4942065;29;20230;-73
2023/01/05 00:38:37;;;;;;;7.15;2.30;;;;;;;10.18;91.03;100161.94;4958609;29;20195;-75
2023/01/05 00:41:09;;;;;;;7.20;1.57;;;;;;;10.22;91.12;100169.41;4941850;29;20299;-76
2023/01/05 00:43:38;;;;;;;8.30;2.43;;;;;;;10.19;91.63;100163.59;4941253;29;20818;-75
2023/01/05 00:46:07;;;;;;;12.40;2.30;;;;;;;10.17;91.40;100154.88;4956563;28;20499;-75
2023/01/05 00:48:36;;;;;;;3.43;1.60;;;;;;;10.19;91.05;100156.31;4958132;29;20196;-77
2023/01/05 00:51:06;;;;;;;4.63;1.67;;;;;;;10.16;90.86;100142.41;4950144;29;20459;-76
2023/01/05 00:53:35;;;;;;;11.30;2.42;;;;;;;10.20;91.49;100149.03;4942023;29;20459;-77
2023/01/05 00:56:05;;;;;;;5.43;2.30;;;;;;;10.27;91.20;100149.81;4948924;28;20254;-75
2023/01/05 00:58:36;;;;;;;8.93;2.10;;;;;;;10.20;90.81;100160.69;4958964;28;20443;-76
2023/01/05 01:01:10;;;;;;;5.37;1.87;;;;;;;10.25;91.06;100146.53;4957555;29;20467;-75
2023/01/05 01:03:41;;;;;;;9.07;2.10;;;;;;;10.27;91.02;100155.22;4941832;29;20817;-75
2023/01/05 01:06:10;;;;;;;11.40;2.63;;;;;;;10.25;90.80;100157.34;4941504;28;20475;-74
2023/01/05 01:08:40;;;;;;;4.73;1.53;;;;;;;10.23;91.67;100164.81;4941226;29;20637;-75
2023/01/05 01:11:10;;;;;;;4.87;1.77;;;;;;;10.21;91.13;100156.94;4958196;29;20426;-74
2023/01/05 01:13:41;;;;;;;5.40;1.77;;;;;;;10.18;91.07;100156.53;4958490;29;20468;-74
2023/01/05 01:16:15;;;;;;;8.37;2.03;;;;;;;10.19;90.68;100150.09;4941263;29;20542;-75
2023/01/05 01:18:44;;;;;;;10.43;2.20;;;;;;;10.12;91.32;100143.88;4958279;29;20427;-75
2023/01/05 01:21:15;;;;;;;8.00;2.20;;;;;;;10.16;91.13;100155.94;4958304;29;20511;-74
2023/01/05 01:23:47;;;;;;;5.47;1.63;;;;;;;10.18;90.97;100145.72;4959801;29;20432;-74
2023/01/05 01:26:16;;;;;;;5.20;2.27;;;;;;;10.10;91.20;100157.59;4961165;29;20439;-74
2023/01/05 01:28:49;;;;;;;9.30;2.20;;;;;;;10.05;91.67;100157.41;4939967;29;20455;-76
2023/01/05 01:31:18;;;;;;;6.30;2.20;;;;;;;9.94;92.18;100158.94;4963339;28;20436;-75
2023/01/05 01:33:48;;;;;;;3.70;1.30;;;;;;;9.91;92.33;100164.78;4961163;29;20477;-76
2023/01/05 01:36:17;;;;;;;5.30;2.00;;;;;;;9.90;92.21;100154.16;4945934;29;20467;-76
2023/01/05 01:38:46;;;;;;;3.37;1.57;;;;;;;9.83;92.81;100151.50;4958121;29;20436;-76
2023/01/05 01:41:16;;;;;;;3.13;1.40;;;;;;;9.80;93.55;100159.19;4959515;29;20488;-78
2023/01/05 01:43:49;;;;;;;8.80;2.50;;;;;;;9.83;93.01;100170.41;4951748;29;20192;-75
2023/01/05 01:46:22;;;;;;;5.83;2.00;;;;;;;9.79;93.36;100158.38;4939554;29;20447;-74
2023/01/05 01:48:55;;;;;;;8.88;2.08;;;;;;;9.68;94.44;100167.16;4958080;29;20427;-77
2023/01/05 01:51:28;;;;;;;3.60;1.35;;;;;;;9.68;94.21;100164.47;4948070;29;20192;-74
2023/01/05 01:54:01;;;;;;;8.15;1.92;;;;;;;9.78;94.16;100162.09;4958466;29;20249;-74
2023/01/05 01:56:36;;;;;;;8.17;2.17;;;;;;;9.86;93.82;100169.16;4958572;29;20224;-74
2023/01/05 01:59:07;;;;;;;3.83;1.60;;;;;;;9.94;92.96;100164.34;4947369;29;20447;-75
2023/01/05 02:01:36;;;;;;;3.73;2.13;;;;;;;10.01;91.99;100162.44;4946646;29;20451;-75
2023/01/05 02:04:06;;;;;;;4.73;2.13;;;;;;;10.12;90.52;100154.69;4956255;29;20447;-75
2023/01/05 02:06:36;;;;;;;5.20;1.30;;;;;;;10.14;90.21;100166.09;4958599;28;20958;-73
2023/01/05 02:09:07;;;;;;;4.27;1.30;;;;;;;10.11;90.38;100150.31;4956778;28;20447;-75
2023/01/05 02:11:48;;;;;;;7.23;2.00;;;;;;;10.12;90.41;100155.50;4940707;29;20455;-75
2023/01/05 02:14:27;;;;;;;12.83;2.73;;;;;;;10.04;90.62;100151.19;4956821;29;20992;-74
2023/01/05 02:17:09;;;;;;;4.40;1.90;;;;;;;10.09;90.21;100153.22;4941403;29;20460;-76
2023/01/05 02:20:32;;;;;;;8.00;2.47;;;;;;;10.16;90.18;100153.25;4940078;29;20436;-76
2023/01/05 02:23:35;;;;;;;12.50;1.87;;;;;;;10.16;90.04;100142.41;4935666;28;20438;-75
2023/01/05 02:26:30;;;;;;;5.00;2.97;;;;;;;10.10;89.82;100141.38;4938304;29;20448;-76
2023/01/05 02:29:19;;;;;;;7.97;1.83;;;;;;;10.15;90.09;100135.31;4940108;29;20418;-74
2023/01/05 02:31:55;;;;;;;8.13;2.10;;;;;;;10.13;90.10;100153.63;4954763;28;20426;-75
2023/01/05 02:34:31;;;;;;;5.33;2.07;;;;;;;10.14;90.00;100139.91;4939857;29;20457;-75
2023/01/05 02:37:09;;;;;;;8.57;1.83;;;;;;;10.16;89.71;100145.13;4958415;29;20427;-76
2023/01/05 02:39:48;;;;;;;7.60;1.60;;;;;;;10.20;89.03;100139.06;4940046;29;20443;-75
2023/01/05 02:42:22;;;;;;;2.90;1.93;;;;;;;10.21;88.38;100134.50;4955991;28;20447;-75
2023/01/05 02:44:53;;;;;;;4.83;1.90;;;;;;;10.23;88.09;100137.78;4954424;28;20448;-77
2023/01/05 02:47:41;;;;;;;6.90;1.97;;;;;;;10.14;88.23;100130.94;4929830;29;20531;-75
2023/01/05 02:50:16;;;;;;;6.83;1.87;;;;;;;10.10;88.13;100144.09;4935746;29;20503;-75
2023/01/05 02:52:53;;;;;;;9.20;2.40;;;;;;;10.14;88.46;100136.34;4940570;29;20450;-76
2023/01/05 02:55:28;;;;;;;6.75;1.80;;;;;;;10.18;88.52;100134.91;4934255;29;20223;-76
2023/01/05 02:58:03;;;;;;;7.93;1.87;;;;;;;10.17;89.06;100138.66;4940401;29;20278;-74
2023/01/05 03:00:38;;;;;;;7.43;1.57;;;;;;;10.21;88.90;100139.91;4951198;29;20482;-76
2023/01/05 03:03:15;;;;;;;3.93;1.80;;;;;;;10.21;88.07;100142.59;4958147;28;20845;-74
2023/01/05 03:05:51;;;;;;;7.43;2.17;;;;;;;10.17;88.93;100144.88;4940222;29;20462;-76
2023/01/05 03:08:23;;;;;;;7.97;2.90;;;;;;;10.17;89.29;100154.88;4956408;29;20199;-74
2023/01/05 03:13:59;;;;;;;10.00;2.57;;;;;;;10.00;90.42;100149.97;4956466;28;20467;-75
2023/01/05 03:16:31;;;;;;;8.80;3.50;;;;;;;10.03;88.85;100152.22;4940839;29;20447;-75
2023/01/05 03:36:22;;;;;;;5.63;1.83;;;;;;;10.24;85.88;100144.84;4944451;29;20451;-77
2023/01/05 03:38:53;;;;;;;5.47;2.30;;;;;;;10.14;87.65;100147.16;4953943;29;20462;-75
2023/01/05 03:41:25;;;;;;;4.17;1.47;;;;;;;10.08;89.51;100161.56;4951482;29;20442;-75
2023/01/05 03:43:57;;;;;;;4.40;1.17;;;;;;;9.95;92.33;100149.78;4949926;28;20443;-77
2023/01/05 03:46:28;;;;;;;8.77;2.10;;;;;;;9.86;91.61;100151.06;4951332;29;20450;-75
2023/01/05 03:48:57;;;;;;;11.15;2.65;;;;;;;9.84;91.76;100157.72;4967521;29;20438;-74
2023/01/05 03:51:29;;;;;;;9.73;2.65;;;;;;;9.81;92.44;100167.09;4953094;29;20196;-74
2023/01/05 03:54:04;;;;;;;5.03;1.67;;;;;;;9.71;93.85;100177.53;4949729;28;20199;-75
2023/01/05 03:56:34;;;;;;;5.00;2.78;;;;;;;9.62;95.61;100173.41;4952520;29;20494;-74
2023/01/05 03:59:03;;;;;;;3.78;1.30;;;;;;;9.54;96.67;100176.34;4968267;29;20247;-75
2023/01/05 04:01:33;;;;;;;7.30;1.90;;;;;;;9.52;97.14;100173.03;4950332;29;20189;-74
2023/01/05 04:04:04;;;;;;;2.42;1.63;;;;;;;9.47;97.99;100175.53;4949735;28;20231;-77
2023/01/05 04:06:34;;;;;;;3.38;1.45;;;;;;;9.40;98.96;100185.50;4954854;28;20227;-74
2023/01/05 04:09:04;;;;;;;7.15;2.20;;;;;;;9.40;99.87;100180.94;4953656;29;20664;-72
2023/01/05 04:11:34;;;;;;;6.07;2.10;;;;;;;9.33;99.62;100184.72;4968122;28;20188;-75
2023/01/05 04:14:08;;;;;;;5.67;1.63;;;;;;;9.25;100.00;100193.84;4953441;29;20470;-74
2023/01/05 04:16:38;;;;;;;4.10;1.58;;;;;;;9.34;100.00;100192.63;4951061;29;20520;-75
2023/01/05 04:19:19;;;;;;;8.13;2.13;;;;;;;9.32;100.00;100192.00;4958530;29;20216;-74
2023/01/05 04:21:52;;;;;;;5.05;1.73;;;;;;;9.36;100.00;100198.63;4950502;29;20644;-74
2023/01/05 04:24:24;;;;;;;4.93;1.67;;;;;;;9.44;100.00;100200.28;4966525;28;20238;-75
2023/01/05 04:26:53;;;;;;;12.13;2.03;;;;;;;9.44;99.76;100202.97;4946599;29;20204;-75
2023/01/05 04:29:26;;;;;;;3.50;1.67;;;;;;;9.40;99.38;100213.34;4949717;29;20282;-74
2023/01/05 04:31:56;;;;;;;3.75;1.60;;;;;;;9.38;99.31;100212.75;4966179;28;20662;-74
2023/01/05 04:34:25;;;;;;;6.28;1.83;;;;;;;9.39;99.98;100222.50;4965723;29;20212;-74
2023/01/05 04:36:58;;;;;;;6.78;1.20;;;;;;;9.37;100.00;100224.59;4949003;29;20375;-74
2023/01/05 04:39:30;;;;;;;5.88;1.55;;;;;;;9.28;100.00;100219.63;4949402;29;20192;-74
2023/01/05 04:42:00;;;;;;;4.32;1.70;;;;;;;9.24;100.00;100224.63;4950402;29;20580;-73
2023/01/05 04:44:29;;;;;;;6.27;1.67;;;;;;;9.14;100.00;100203.44;4957294;28;20215;-77
2023/01/05 04:47:01;;;;;;;7.38;1.70;;;;;;;9.17;100.00;100212.97;4947575;28;20444;-75
2023/01/05 04:49:32;;;;;;;3.72;1.73;;;;;;;9.14;100.00;100206.16;4966594;28;20199;-74
2023/01/05 04:52:03;;;;;;;2.88;1.63;;;;;;;9.19;100.00;100212.78;4948001;29;20200;-74
2023/01/05 04:54:35;;;;;;;5.45;1.60;;;;;;;9.22;100.00;100228.53;4940446;29;20247;-76
2023/01/05 04:57:06;;;;;;;5.05;1.85;;;;;;;9.23;100.00;100227.50;4926112;29;20299;-75
2023/01/05 04:59:35;;;;;;;3.50;1.48;;;;;;;9.24;100.00;100229.19;4953977;29;20280;-75
2023/01/05 05:02:05;;;;;;;10.20;2.05;;;;;;;9.22;100.00;100233.94;4965466;29;20196;-74
2023/01/05 05:04:35;;;;;;;8.38;1.40;;;;;;;9.26;100.00;100229.78;4967816;28;20248;-76
2023/01/05 05:07:06;;;;;;;7.13;2.20;;;;;;;9.23;100.00;100235.63;4943971;29;20207;-75
2023/01/05 05:09:36;;;;;;;5.85;2.13;;;;;;;9.17;100.00;100242.69;4947846;29;20200;-74
2023/01/05 05:12:05;;;;;;;7.20;1.73;;;;;;;9.27;100.00;100240.38;4941546;29;20207;-75
2023/01/05 05:14:36;;;;;;;2.78;1.25;;;;;;;9.31;100.00;100230.81;4948954;29;20882;-74
2023/01/05 05:17:06;;;;;;;6.60;1.98;;;;;;;9.30;100.00;100255.31;4942385;29;20207;-74
2023/01/05 05:19:35;;;;;;;5.95;1.50;;;;;;;9.21;100.00;100240.38;4948622;29;20267;-73
2023/01/05 05:22:06;;;;;;;4.70;1.63;;;;;;;9.28;100.00;100241.22;5064930;23;20668;-74
2023/01/05 05:24:35;;;;;;;6.40;1.65;;;;;;;9.28;100.00;100243.91;4970891;28;20298;-74
2023/01/05 05:27:04;;;;;;;4.95;1.67;;;;;;;9.26;100.00;100248.69;4956474;28;20200;-73
2023/01/05 05:29:33;;;;;;;4.65;1.40;;;;;;;9.25;100.00;100241.63;4972738;28;20655;-74
2023/01/05 05:32:06;;;;;;;10.85;2.55;;;;;;;9.23;100.00;100241.00;4964586;28;20649;-75
2023/01/05 05:34:34;;;;;;;5.88;1.20;;;;;;;9.26;100.00;100227.91;4970850;28;20227;-72
2023/01/05 05:37:05;;;;;;;3.25;1.30;;;;;;;9.30;100.00;100249.91;4970485;28;20215;-74
2023/01/05 05:39:34;;;;;;;7.40;1.60;;;;;;;9.25;100.00;100247.00;4969318;28;20199;-72
2023/01/05 05:42:09;;;;;;;4.75;1.65;;;;;;;9.26;100.00;100245.97;4973975;28;20195;-74
2023/01/05 05:44:38;;;;;;;2.80;1.63;;;;;;;9.26;100.00;100237.88;4967258;28;20213;-74
2023/01/05 05:47:07;;;;;;;5.53;1.35;;;;;;;9.29;100.00;100248.28;4973604;28;20187;-72
2023/01/05 05:49:36;;;;;;;9.60;1.92;;;;;;;9.29;100.00;100238.31;4966160;28;20192;-74
2023/01/05 05:52:06;;;;;;;3.95;1.42;;;;;;;9.26;100.00;100227.91;4970490;28;20376;-74
2023/01/05 05:54:35;;;;;;;8.40;1.58;;;;;;;9.30;100.00;100239.94;4958779;28;20234;-72
2023/01/05 05:57:04;;;;;;;5.20;1.58;;;;;;;9.27;100.00;100263.84;4970783;28;20220;-70
2023/01/05 05:59:33;;;;;;;5.40;2.05;;;;;;;9.24;100.00;100293.97;4971372;28;20202;-72
2023/01/05 06:02:02;;;;;;;4.13;1.42;;;;;;;9.12;100.00;100286.50;4973538;28;20219;-72
2023/01/05 06:04:31;;;;;;;1.88;1.05;;;;;;;8.99;100.00;100286.50;4971923;28;20646;-72
2023/01/05 06:07:00;;;;;;;2.17;1.02;;;;;;;8.97;100.00;100280.47;4971339;28;20200;-71
2023/01/05 06:09:31;;;;;;;3.88;0.95;;;;;;;8.92;100.00;100282.94;4970768;28;20622;-73
2023/01/05 06:12:00;;;;;;;2.85;0.80;;;;;;;8.91;100.00;100277.75;4965116;28;20230;-75
2023/01/05 06:14:29;;;;;;;4.00;1.30;;;;;;;8.81;100.00;100278.16;4965669;28;20223;-73
2023/01/05 06:16:59;;;;;;;2.10;1.08;;;;;;;8.79;100.00;100276.72;4972594;28;20282;-75
2023/01/05 06:19:28;;;;;;;1.15;0.70;;;;;;;8.78;100.00;100283.97;4953144;28;20757;-72
2023/01/05 06:21:57;;;;;;;1.65;0.90;;;;;;;8.74;100.00;100285.41;4970406;28;20199;-73
2023/01/05 06:24:26;;;;;;;4.32;1.00;;;;;;;8.70;100.00;100301.19;4971292;28;20702;-74
2023/01/05 06:26:56;;;;;;;1.17;0.85;;;;;;;8.65;100.00;100303.66;4966588;28;20216;-72
2023/01/05 06:29:25;;;;;;;3.10;1.02;;;;;;;8.59;100.00;100296.38;4970768;28;20191;-74
2023/01/05 06:31:54;;;;;;;3.75;1.58;;;;;;;8.53;100.00;100309.84;4971919;28;20188;-73
2023/01/05 06:34:23;;;;;;;2.00;0.60;;;;;;;8.51;100.00;100303.84;4968640;28;20715;-74
2023/01/05 06:36:52;;;;;;;1.73;0.98;;;;;;;8.50;100.00;100299.47;4972438;28;20216;-74
2023/01/05 06:39:28;;;;;;;6.45;0.90;;;;;;;8.50;100.00;100302.16;4969024;28;20214;-73
2023/01/05 06:42:02;;;;;;;2.58;0.70;;;;;;;8.46;100.00;100306.31;4969997;28;20244;-74
2023/01/05 06:44:31;;;;;;;3.80;1.20;;;;;;;8.47;100.00;100326.84;4968135;28;20723;-71
2023/01/05 06:47:00;;;;;;;1.15;0.73;;;;;;;8.52;100.00;100321.69;4969571;28;20213;-74
2023/01/05 06:49:29;;;;;;;2.50;0.90;;;;;;;8.57;100.00;100322.72;4965494;28;20199;-74
2023/01/05 06:51:58;;;;;;;1.40;0.77;;;;;;;8.60;100.00;100327.72;4968141;28;20196;-72
2023/01/05 06:54:29;;;;;;;2.85;0.82;;;;;;;8.60;100.00;100329.59;4973119;28;20218;-73
2023/01/05 06:56:58;;;;;;;4.22;1.10;;;;;;;8.63;100.00;100337.25;4970780;28;20189;-70
2023/01/05 06:59:28;;;;;;;1.35;0.70;;;;;;;8.63;100.00;100334.56;4970377;28;20194;-73
2023/01/05 07:01:57;;;;;;;3.92;1.70;;;;;;;8.62;100.00;100344.50;4971165;28;20200;-73
2023/01/05 07:04:54;;;;;;;2.95;1.30;;;;;;;8.64;100.00;100333.53;4971108;28;20298;-71
2023/01/05 07:07:24;;;;;;;2.38;0.70;;;;;;;8.61;99.26;100352.81;4972241;28;20221;-72
2023/01/05 07:09:54;;;;;;;1.52;0.90;;;;;;;8.68;96.44;100349.09;4955635;28;20195;-73
2023/01/05 07:12:23;;;;;;;2.75;0.70;;;;;;;8.63;97.60;100348.03;4969522;28;20239;-73
2023/01/05 07:14:54;;;;;;;3.55;1.55;;;;;;;8.67;97.17;100357.38;4976489;28;20223;-72
2023/01/05 07:17:25;;;;;;;5.38;0.77;;;;;;;8.75;94.36;100354.53;4978512;28;20192;-73
2023/01/05 07:19:54;;;;;;;1.80;0.70;;;;;;;8.73;95.18;100356.59;4977634;28;20191;-73
2023/01/05 07:22:23;;;;;;;2.55;0.95;;;;;;;8.76;95.45;100361.59;4972117;28;20187;-73
2023/01/05 07:24:52;;;;;;;1.60;1.20;;;;;;;8.66;95.64;100351.19;4973597;28;20309;-72
2023/01/05 07:27:21;;;;;;;3.47;1.10;;;;;;;8.66;95.32;100361.16;4975731;28;20639;-73
2023/01/05 07:29:54;;;;;;;4.45;1.38;;;;;;;8.66;94.91;100361.16;4977994;28;20188;-72
2023/01/05 07:32:23;;;;;;;1.55;0.90;;;;;;;8.70;94.49;100360.53;4977812;28;20187;-73
2023/01/05 07:34:53;;;;;;;3.55;0.80;;;;;;;8.66;93.52;100380.03;4974868;28;20214;-73
2023/01/05 07:37:24;;;;;;;1.20;0.73;;;;;;;8.61;94.13;100385.19;4976014;28;20239;-71
2023/01/05 07:39:53;;;;;;;4.30;2.28;;;;;;;8.59;94.43;100373.75;4976574;28;20274;-71
2023/01/05 07:42:22;;;;;;;1.17;0.68;;;;;;;8.58;93.26;100377.47;4974088;28;20195;-73
2023/01/05 07:44:52;;;;;;;2.85;0.68;;;;;;;8.59;93.85;100396.16;4953580;28;20239;-73
2023/01/05 07:47:22;;;;;;;1.58;0.70;;;;;;;8.59;91.68;100398.03;4980319;28;20258;-74
2023/01/05 07:49:51;;;;;;;1.55;0.80;;;;;;;8.55;92.09;100400.31;4976870;28;20275;-75
2023/01/05 07:52:20;;;;;;;3.10;0.70;;;;;;;8.55;91.97;100396.78;4979446;28;20202;-71
2023/01/05 07:54:49;;;;;;;1.38;0.70;;;;;;;8.54;91.32;100403.19;4981102;28;20211;-74
2023/01/05 07:57:18;;;;;;;0.90;0.60;;;;;;;8.63;90.30;100412.78;4981198;28;20717;-73
2023/01/05 07:59:48;;;;;;;1.38;0.55;;;;;;;8.66;89.06;100415.09;4973271;28;20223;-72
2023/01/05 08:02:17;;;;;;;1.50;0.80;;;;;;;8.69;89.08;100418.22;4961772;28;20223;-73
2023/01/05 08:04:48;;;;;;;1.52;1.02;;;;;;;8.67;88.65;100422.13;4968797;28;20235;-71
2023/01/05 08:07:17;;;;;;;1.73;0.93;;;;;;;8.72;88.34;100428.59;4964483;28;20207;-72
2023/01/05 08:13:58;;;;;;;1.17;0.70;;;;;;;8.65;88.79;100446.63;4958802;28;20246;-72
2023/01/05 08:15:22;;;;;;;1.90;0.73;;;;;;;8.69;87.13;100453.28;4968699;28;20215;-74
2023/01/05 08:17:51;;;;;;;0.85;0.60;;;;;;;8.70;86.14;100462.19;4965602;28;20185;-71
2023/01/05 08:20:21;;;;;;;2.20;0.75;;;;;;;8.77;86.89;100464.91;4966484;28;20662;-72
2023/01/05 08:22:51;;;;;;;1.20;0.57;;;;;;;8.75;86.20;100467.84;4967741;28;20188;-72
2023/01/05 08:25:31;;;;;;;2.10;0.90;;;;;;;8.68;85.77;100461.56;4966542;28;20270;-72
2023/01/05 08:28:00;;;;;;;1.70;0.63;;;;;;;8.68;86.13;100483.13;4970316;28;20220;-71
2023/01/05 08:30:30;;;;;;;1.00;0.70;;;;;;;8.64;85.21;100471.09;4966879;28;20552;-72
2023/01/05 08:32:59;;;;;;;1.00;0.60;;;;;;;8.63;85.50;100477.50;4953440;28;20199;-72
2023/01/05 08:35:30;;;;;;;2.08;1.05;;;;;;;8.59;85.04;100468.16;4969134;28;20653;-72
2023/01/05 08:37:59;;;;;;;2.17;0.90;;;;;;;8.62;84.70;100473.13;4972464;28;20200;-72
2023/01/05 08:40:28;;;;;;;0.90;0.70;;;;;;;8.63;85.37;100485.59;4967912;28;20556;-71
2023/01/05 08:42:58;;;;;;;1.10;0.90;;;;;;;8.60;84.14;100464.44;4970762;28;20677;-71
2023/01/05 08:45:29;;;;;;;1.85;0.98;;;;;;;8.58;85.99;100469.19;4967931;28;20211;-71
2023/01/05 08:48:01;;;;;;;1.35;0.80;;;;;;;8.56;85.84;100476.66;4967815;28;20215;-72
2023/01/05 08:50:31;;;;;;;2.72;0.70;;;;;;;8.44;84.79;100475.53;4963959;28;20196;-72
2023/01/05 08:53:00;;;;;;;2.25;0.90;;;;;;;8.51;84.64;100481.81;4968714;28;20207;-71
2023/01/05 08:55:29;;;;;;;3.25;1.20;;;;;;;8.59;84.82;100489.72;4968274;28;20214;-71
2023/01/05 08:57:58;;;;;;;1.50;0.80;;;;;;;8.54;83.87;100498.41;4955987;28;20546;-71
2023/01/05 09:00:27;;;;;;;1.30;0.65;;;;;;;8.43;84.01;100484.66;4974731;28;20188;-73
2023/01/05 09:03:01;;;;;;;2.22;0.70;;;;;;;8.36;84.27;100478.41;4966799;28;20685;-71
2023/01/05 09:05:32;;;;;;;1.13;0.60;;;;;;;8.29;84.60;100489.97;4966050;28;20212;-72
2023/01/05 09:08:01;;;;;;;1.63;0.70;;;;;;;8.31;84.77;100497.03;4971651;28;20717;-72
2023/01/05 09:10:30;;;;;;;1.65;0.70;;;;;;;8.31;83.65;100491.63;4977201;28;20199;-73
2023/01/05 09:12:59;;;;;;;1.95;0.95;;;;;;;8.28;84.62;100498.19;4965105;28;20198;-73
2023/01/05 09:15:28;;;;;;;1.25;0.80;;;;;;;8.36;83.25;100508.06;4970976;28;20219;-73
2023/01/05 09:17:57;;;;;;;6.00;0.70;;;;;;;8.35;82.20;100509.91;4973334;28;20184;-73
2023/01/05 09:20:31;;;;;;;1.98;0.80;;;;;;;8.34;83.40;100529.81;4950893;28;20194;-73
2023/01/05 09:23:07;;;;;;;1.23;0.70;;;;;;;8.40;80.77;100525.50;4974986;28;20620;-72
2023/01/05 09:25:38;;;;;;;5.03;0.80;;;;;;;8.40;80.27;100544.38;4969488;28;20267;-73
2023/01/05 09:28:07;;;;;;;1.73;0.90;;;;;;;8.39;80.71;100531.91;4972622;28;20200;-72
2023/01/05 09:30:37;;;;;;;1.23;0.70;;;;;;;8.36;80.36;100543.09;4971424;28;20274;-73
2023/01/05 09:33:14;;;;;;;4.05;1.40;;;;;;;8.38;79.57;100538.31;4970552;28;20192;-73
2023/01/05 09:35:52;;;;;;;1.20;0.88;;;;;;;8.47;78.79;100553.34;4974313;28;20225;-72
2023/01/05 09:38:22;;;;;;;5.45;2.00;;;;;;;8.54;78.65;100554.22;4971349;28;20694;-73
2023/01/05 09:40:54;;;;;;;2.00;1.05;;;;;;;8.73;77.85;100558.91;4970576;28;20537;-72
2023/01/05 09:43:26;;;;;;;1.40;1.00;;;;;;;8.77;76.42;100553.94;4976105;28;20199;-73
2023/01/05 09:45:57;;;;;;;5.70;1.00;;;;;;;8.92;77.37;100581.63;4970369;28;20222;-72
2023/01/05 09:48:28;;;;;;;5.35;0.90;;;;;;;8.92;75.87;100568.16;4971616;28;20238;-73
2023/01/05 09:50:59;;;;;;;1.52;0.90;;;;;;;9.02;76.45;100577.56;4972422;28;20194;-73
2023/01/05 09:53:30;;;;;;;2.95;1.50;;;;;;;9.10;75.19;100580.06;4974922;28;20194;-73
2023/01/05 09:55:59;;;;;;;1.70;1.15;;;;;;;9.09;75.51;100578.44;4972725;28;20219;-73
2023/01/05 09:58:35;;;;;;;4.57;1.02;;;;;;;9.18;74.52;100586.34;4975253;28;20179;-72
2023/01/05 10:01:12;;;;;;;4.20;1.10;;;;;;;9.20;74.43;100573.50;4975678;28;20194;-74
2023/01/05 10:03:51;;;;;;;3.08;1.00;;;;;;;9.18;74.22;100578.25;4972825;28;20202;-73
2023/01/05 10:06:40;;;;;;;5.00;1.38;;;;;;;9.24;73.90;100588.25;4963747;28;20200;-74
2023/01/05 10:09:12;;;;;;;4.80;1.00;;;;;;;9.21;73.58;100570.56;4963448;28;20199;-71
2023/01/05 10:15:02;;;;;;;2.45;0.80;;;;;;;9.24;73.65;100572.91;4969473;28;20253;-72
2023/01/05 10:17:38;;;;;;;3.28;1.63;;;;;;;9.37;73.45;100577.50;4965274;28;20194;-72
2023/01/05 10:20:30;;;;;;;5.65;1.33;;;;;;;9.36;73.29;100562.31;4954677;28;20199;-72
2023/01/05 10:23:13;;;;;;;4.45;1.42;;;;;;;9.39;73.41;100591.66;4973018;28;20536;-72
2023/01/05 10:25:51;;;;;;;5.10;1.15;;;;;;;9.40;72.89;100569.00;4965595;28;20215;-73
2023/01/05 10:28:34;;;;;;;2.53;1.00;;;;;;;9.47;72.21;100568.00;4967549;28;20246;-72
2023/01/05 10:31:09;;;;;;;5.93;1.20;;;;;;;9.49;72.61;100594.78;4956972;28;20195;-72
2023/01/05 10:33:48;;;;;;;5.47;1.58;;;;;;;9.43;71.62;100584.81;4968424;28;20485;-72
2023/01/05 10:36:48;;;;;;;1.27;0.90;;;;;;;9.34;71.65;100577.91;4967868;28;20555;-71
2023/01/05 10:43:41;;;;;;;1.40;0.60;;;;;;;9.41;71.14;100594.97;4963057;28;20193;-74
2023/01/05 10:46:12;;;;;;;7.15;1.13;;;;;;;9.59;71.19;100600.63;4965333;28;20234;-73
2023/01/05 10:49:01;;;;;;;3.83;0.88;;;;;;;9.87;70.14;100604.06;4964911;28;20203;-74
2023/01/05 10:51:33;;;;;;;2.43;0.97;;;;;;;9.88;69.61;100594.91;4966794;28;20662;-72
2023/01/05 10:54:03;;;;;;;4.43;0.70;;;;;;;9.81;69.44;100599.47;4970024;28;20433;-72
2023/01/05 10:56:32;;;;;;;2.97;1.27;;;;;;;9.83;69.88;100604.66;4966125;28;20435;-73
2023/01/05 10:59:11;;;;;;;4.45;1.35;;;;;;;9.75;69.96;100610.25;4964183;28;20427;-71
2023/01/05 11:01:49;;;;;;;10.15;2.40;;;;;;;9.76;69.82;100615.47;4970948;28;20226;-72
2023/01/05 11:04:22;;;;;;;5.83;1.10;;;;;;;9.75;70.13;100619.19;4967412;28;20230;-72
2023/01/05 11:07:05;;;;;;;2.70;0.70;;;;;;;9.66;70.60;100622.28;4970083;28;20437;-71
2023/01/05 11:09:39;;;;;;;5.00;1.30;;;;;;;9.67;70.47;100624.78;4964833;28;20207;-72
2023/01/05 11:12:18;;;;;;;1.65;0.90;;;;;;;9.59;70.41;100627.66;4945816;28;20195;-73
2023/01/05 11:14:53;;;;;;;3.60;1.10;;;;;;;9.63;70.59;100634.34;4966222;28;20334;-70
2023/01/05 11:17:29;;;;;;;7.65;1.98;;;;;;;9.55;70.54;100642.59;4966531;28;20416;-72
2023/01/05 11:19:58;;;;;;;3.77;0.90;;;;;;;9.65;71.14;100648.47;4966011;28;20662;-72
2023/01/05 11:22:30;;;;;;;8.55;1.02;;;;;;;9.61;70.71;100641.81;5003524;23;20505;-74
2023/01/05 11:25:21;;;;;;;3.58;0.70;;;;;;;9.64;70.77;100644.09;4924135;29;20304;-74
2023/01/05 11:28:06;;;;;;;2.50;1.03;;;;;;;9.67;71.43;100653.66;4918033;29;20199;-75
2023/01/05 11:30:38;;;;;;;4.05;1.42;;;;;;;9.61;71.73;100639.09;4918569;29;20453;-76
2023/01/05 11:33:17;;;;;;;5.72;1.30;;;;;;;9.65;71.37;100643.06;4917613;29;20216;-73
2023/01/05 11:35:53;;;;;;;3.28;1.83;;;;;;;9.66;71.39;100652.84;4907313;29;20221;-73
2023/01/05 11:38:25;;;;;;;2.15;1.05;;;;;;;9.84;71.05;100677.44;4915813;29;20249;-76
2023/01/05 11:40:56;;;;;;;3.57;0.90;;;;;;;9.82;70.81;100655.19;4919368;29;20226;-74
2023/01/05 11:43:28;;;;;;;2.08;1.25;;;;;;;9.83;71.07;100658.69;4923283;29;20529;-74
2023/01/05 11:46:04;;;;;;;3.30;1.00;;;;;;;9.76;70.75;100655.16;4918025;29;20243;-74
2023/01/05 11:48:36;;;;;;;2.90;1.47;;;;;;;9.66;70.22;100679.84;4920581;29;20489;-75
2023/01/05 11:51:05;;;;;;;5.87;1.70;;;;;;;9.77;70.70;100700.91;4921058;29;20445;-74
2023/01/05 11:53:39;;;;;;;4.50;1.88;;;;;;;9.71;70.28;100688.19;4919800;29;20503;-75
2023/01/05 11:56:20;;;;;;;8.53;1.40;;;;;;;9.79;69.87;100696.13;4905159;29;20222;-75
2023/01/05 11:58:51;;;;;;;3.55;1.25;;;;;;;9.83;69.97;100697.38;4920165;29;20888;-74
2023/01/05 12:01:43;;;;;;;6.67;2.07;;;;;;;9.89;69.93;100710.09;4928217;29;20197;-74
2023/01/05 12:04:13;;;;;;;3.75;1.00;;;;;;;9.92;69.09;100709.66;4929514;29;20433;-73
2023/01/05 12:06:58;;;;;;;6.40;1.23;;;;;;;10.15;69.35;100711.22;4936076;29;20217;-81
2023/01/05 12:09:32;;;;;;;4.53;1.40;;;;;;;10.25;68.30;100719.81;4942029;29;20827;-82
2023/01/05 12:12:26;;;;;;;3.90;1.17;;;;;;;10.01;68.92;100727.41;4933242;29;21066;-81
2023/01/05 12:15:12;;;;;;;2.20;1.00;;;;;;;10.02;69.65;100723.63;4926871;29;20192;-81
2023/01/05 12:17:59;;;;;;;5.33;1.07;;;;;;;10.00;69.24;100735.72;4934688;29;20451;-83
2023/01/05 12:20:54;;;;;;;2.40;1.03;;;;;;;9.82;70.15;100724.63;4938726;29;20908;-81
2023/01/05 12:23:53;;;;;;;5.37;0.87;;;;;;;9.69;70.78;100732.66;4953159;29;20437;-82
2023/01/05 12:26:27;;;;;;;3.08;1.63;;;;;;;9.70;71.37;100737.84;4943625;28;20440;-82
2023/01/05 12:29:27;;;;;;;5.25;1.30;;;;;;;9.74;70.68;100744.53;4943171;29;20201;-83
2023/01/05 12:32:38;;;;;;;2.65;0.80;;;;;;;9.74;70.22;100744.53;4936254;29;20227;-82
2023/01/05 12:35:46;;;;;;;3.28;1.27;;;;;;;9.74;70.31;100746.38;4949061;29;20268;-82
2023/01/05 12:38:34;;;;;;;4.53;1.77;;;;;;;9.82;70.36;100752.47;4931097;29;20205;-81
2023/01/05 12:41:43;;;;;;;5.95;1.42;;;;;;;9.84;70.31;100755.81;4923880;29;20532;-82